Time;durP1;ratioP1;P1;durP2;ratioP2;P2;SDS_P1;SDS_P2;PMS_P1;PMS_P2;Temp;Humidity;BMP_temperature;BMP_pressure;BME280_temperature;BME280_humidity;BME280_pressure;Samples;Min_cycle;Max_cycle;Signal;HPM_P1;HPM_P2
2020/12/21 00:02:22;;;;;;;31.25;17.08;;;8.60;99.90;;;;;;5048927;28;20582;-53
2020/12/21 00:04:48;;;;;;;32.13;17.08;;;8.60;99.90;;;;;;5047761;28;20502;-55
2020/12/21 00:07:13;;;;;;;29.08;16.15;;;8.60;99.90;;;;;;5038009;28;20032;-54
2020/12/21 00:09:39;;;;;;;33.05;16.58;;;8.60;99.90;;;;;;5045133;28;20029;-55
2020/12/21 00:12:05;;;;;;;31.48;16.63;;;8.60;99.90;;;;;;5029285;28;20131;-57
2020/12/21 00:14:31;;;;;;;28.17;16.48;;;8.60;99.90;;;;;;5030010;28;20037;-50
2020/12/21 00:16:56;;;;;;;30.42;16.10;;;8.60;99.90;;;;;;5046314;28;20055;-54
2020/12/21 00:19:24;;;;;;;27.65;15.88;;;8.60;99.90;;;;;;5048375;28;20393;-53
2020/12/21 00:21:53;;;;;;;31.27;16.23;;;8.70;99.90;;;;;;5047919;28;20040;-56
2020/12/21 00:24:20;;;;;;;34.25;16.95;;;8.60;99.90;;;;;;5049115;28;20430;-54
2020/12/21 00:26:47;;;;;;;31.00;16.77;;;8.70;99.90;;;;;;5036352;28;20446;-56
2020/12/21 00:29:14;;;;;;;31.33;14.77;;;8.70;99.90;;;;;;5042148;28;20029;-50
2020/12/21 00:31:40;;;;;;;31.27;16.33;;;8.70;99.90;;;;;;5048742;28;20055;-48
2020/12/21 00:34:07;;;;;;;31.83;16.48;;;8.70;99.90;;;;;;5047496;28;20036;-56
2020/12/21 00:36:37;;;;;;;37.17;17.38;;;8.70;99.90;;;;;;5048906;28;20025;-54
2020/12/21 00:39:07;;;;;;;33.78;17.27;;;8.70;99.90;;;;;;5038982;28;20519;-53
2020/12/21 00:41:33;;;;;;;33.40;17.08;;;8.70;99.90;;;;;;5028877;28;20040;-53
2020/12/21 00:43:59;;;;;;;38.22;18.50;;;8.80;99.90;;;;;;5035502;28;20115;-54
2020/12/21 00:46:27;;;;;;;28.00;15.75;;;8.80;99.90;;;;;;5048492;28;20083;-55
2020/12/21 00:48:54;;;;;;;30.17;14.55;;;8.80;99.90;;;;;;5023645;28;20442;-52
2020/12/21 00:51:20;;;;;;;31.65;16.08;;;8.80;99.90;;;;;;5048657;28;20033;-52
2020/12/21 00:53:47;;;;;;;26.83;15.90;;;8.80;99.90;;;;;;5042577;28;20035;-51
2020/12/21 00:56:13;;;;;;;31.00;15.95;;;8.80;99.90;;;;;;5032510;28;20028;-53
2020/12/21 00:58:42;;;;;;;27.50;15.02;;;8.70;99.90;;;;;;5047825;28;20628;-55
2020/12/21 01:01:20;;;;;;;32.53;16.00;;;8.70;99.90;;;;;;5048570;28;20640;-55
2020/12/21 01:03:46;;;;;;;30.33;16.00;;;8.70;99.90;;;;;;5046693;28;20049;-53
2020/12/21 01:06:13;;;;;;;35.55;16.77;;;8.70;99.90;;;;;;5040783;28;20045;-54
2020/12/21 01:08:39;;;;;;;33.38;15.65;;;8.70;99.90;;;;;;5030762;28;20041;-50
2020/12/21 01:11:15;;;;;;;36.78;18.27;;;8.70;99.90;;;;;;5048378;28;20029;-51
2020/12/21 01:13:43;;;;;;;33.88;19.05;;;8.70;99.90;;;;;;5045515;28;20024;-55
2020/12/21 01:16:09;;;;;;;41.15;21.33;;;8.60;99.90;;;;;;5028337;28;20432;-53
2020/12/21 01:18:35;;;;;;;45.05;22.40;;;8.70;99.90;;;;;;5042754;28;20481;-56
2020/12/21 01:21:01;;;;;;;34.53;19.60;;;8.70;99.90;;;;;;5047060;28;20037;-55
2020/12/21 01:23:27;;;;;;;28.17;16.00;;;8.70;99.90;;;;;;5047155;28;20057;-53
2020/12/21 01:25:53;;;;;;;34.97;18.85;;;8.70;99.90;;;;;;5051103;28;20041;-51
2020/12/21 01:28:19;;;;;;;34.25;20.15;;;8.70;99.90;;;;;;5033403;28;20048;-52
2020/12/21 01:30:45;;;;;;;46.40;21.58;;;8.70;99.90;;;;;;5044053;28;20061;-56
2020/12/21 01:33:11;;;;;;;47.35;25.95;;;8.70;99.90;;;;;;5052045;28;20120;-55
2020/12/21 01:35:37;;;;;;;58.47;31.55;;;8.70;99.90;;;;;;5051258;28;20548;-54
2020/12/21 01:38:03;;;;;;;49.63;28.45;;;8.70;99.90;;;;;;5050064;28;20128;-56
2020/12/21 01:40:29;;;;;;;51.40;25.85;;;8.70;99.90;;;;;;5051495;28;20073;-57
2020/12/21 01:42:55;;;;;;;43.05;23.08;;;8.70;99.90;;;;;;5052224;28;20053;-51
2020/12/21 01:45:20;;;;;;;49.70;24.77;;;8.70;99.90;;;;;;5050962;28;20139;-51
2020/12/21 01:47:47;;;;;;;47.53;25.23;;;8.70;99.90;;;;;;5051009;28;20036;-54
2020/12/21 01:50:13;;;;;;;42.47;22.13;;;8.70;99.90;;;;;;5049370;28;20057;-56
2020/12/21 01:52:39;;;;;;;37.85;19.02;;;8.70;99.90;;;;;;5051824;28;20032;-54
2020/12/21 01:55:06;;;;;;;36.25;17.92;;;8.70;99.90;;;;;;5051137;28;20700;-54
2020/12/21 01:57:32;;;;;;;32.63;17.00;;;8.60;99.90;;;;;;5047951;28;20030;-53
2020/12/21 02:00:00;;;;;;;33.28;17.38;;;8.60;99.90;;;;;;5033886;28;20578;-54
2020/12/21 02:02:25;;;;;;;31.80;17.50;;;8.60;99.90;;;;;;5051451;28;20136;-55
2020/12/21 02:04:51;;;;;;;32.35;16.15;;;8.60;99.90;;;;;;5050656;28;20108;-53
2020/12/21 02:07:17;;;;;;;31.08;16.95;;;8.60;99.90;;;;;;5049400;28;20103;-53
2020/12/21 02:09:43;;;;;;;36.15;18.00;;;8.60;99.90;;;;;;5038992;28;20033;-55
2020/12/21 02:12:12;;;;;;;31.42;15.60;;;8.60;99.90;;;;;;5048344;28;20043;-51
2020/12/21 02:14:37;;;;;;;29.73;15.88;;;8.60;99.90;;;;;;5050462;28;20075;-53
2020/12/21 02:17:04;;;;;;;33.13;17.48;;;8.60;99.90;;;;;;5051709;28;20025;-55
2020/12/21 02:19:29;;;;;;;32.28;17.48;;;8.60;99.90;;;;;;5048811;28;20392;-56
2020/12/21 02:21:55;;;;;;;35.08;17.90;;;8.70;99.90;;;;;;5044988;28;20033;-57
2020/12/21 02:24:21;;;;;;;31.13;16.95;;;8.70;99.90;;;;;;5051272;28;20550;-52
2020/12/21 02:26:47;;;;;;;33.58;16.85;;;8.70;99.90;;;;;;5050178;28;20219;-53
2020/12/21 02:29:12;;;;;;;32.47;16.25;;;8.70;99.90;;;;;;5049451;28;20552;-53
2020/12/21 02:31:38;;;;;;;30.80;16.63;;;8.70;99.90;;;;;;5050404;28;20056;-56
2020/12/21 02:34:04;;;;;;;33.83;17.10;;;8.60;99.90;;;;;;5050955;28;20381;-55
2020/12/21 02:36:30;;;;;;;36.90;18.00;;;8.60;99.90;;;;;;5031384;28;20536;-53
2020/12/21 02:38:56;;;;;;;33.88;15.88;;;8.60;99.90;;;;;;5051001;28;20032;-55
2020/12/21 02:41:21;;;;;;;30.88;16.27;;;8.60;99.90;;;;;;5047967;28;20048;-52
2020/12/21 02:43:47;;;;;;;34.92;17.42;;;8.60;99.90;;;;;;5050255;28;20032;-52
2020/12/21 02:46:15;;;;;;;36.25;17.95;;;8.60;99.90;;;;;;5050090;28;20492;-57
2020/12/21 02:48:41;;;;;;;38.92;18.02;;;8.60;99.90;;;;;;5047272;28;20041;-54
2020/12/21 02:51:07;;;;;;;37.72;18.80;;;8.60;99.90;;;;;;5048844;28;20666;-52
2020/12/21 02:53:33;;;;;;;35.38;18.33;;;8.50;99.90;;;;;;5049560;28;20229;-51
2020/12/21 02:55:59;;;;;;;33.22;18.27;;;8.50;99.90;;;;;;5050703;28;20033;-51
2020/12/21 02:58:24;;;;;;;34.42;18.52;;;8.50;99.90;;;;;;5049921;28;20432;-54
2020/12/21 03:00:51;;;;;;;27.75;16.58;;;8.50;99.90;;;;;;5403454;22;20168;-51
2020/12/21 03:03:17;;;;;;;32.35;17.42;;;8.40;99.90;;;;;;5070570;28;20486;-56
2020/12/21 03:05:43;;;;;;;34.55;17.33;;;8.50;99.90;;;;;;5069333;28;20044;-55
2020/12/21 03:08:10;;;;;;;36.13;19.08;;;8.50;99.90;;;;;;5070413;28;20024;-57
2020/12/21 03:10:37;;;;;;;30.38;17.58;;;8.40;99.90;;;;;;5061535;28;20450;-54
2020/12/21 03:13:03;;;;;;;27.48;16.05;;;8.50;99.90;;;;;;5068498;28;20093;-50
2020/12/21 03:15:29;;;;;;;31.08;16.10;;;8.50;99.90;;;;;;5070505;28;20161;-55
2020/12/21 03:17:55;;;;;;;33.88;16.77;;;8.40;99.90;;;;;;5068571;28;20485;-54
2020/12/21 03:20:21;;;;;;;39.58;20.40;;;8.40;99.90;;;;;;5069541;28;20548;-56
2020/12/21 03:22:47;;;;;;;33.58;18.38;;;8.40;99.90;;;;;;5069283;28;20063;-55
2020/12/21 03:25:13;;;;;;;38.80;18.95;;;8.40;99.90;;;;;;5070254;28;20063;-55
2020/12/21 03:27:40;;;;;;;42.70;19.70;;;8.40;99.90;;;;;;5055719;28;20118;-56
2020/12/21 03:30:07;;;;;;;40.30;19.80;;;8.40;99.90;;;;;;5054097;28;20373;-56
2020/12/21 03:32:33;;;;;;;33.60;18.58;;;8.40;99.90;;;;;;5070154;28;20113;-57
2020/12/21 03:34:59;;;;;;;39.63;19.92;;;8.40;99.90;;;;;;5069501;28;20024;-54
2020/12/21 03:37:25;;;;;;;43.25;20.13;;;8.40;99.90;;;;;;5069873;28;20051;-53
2020/12/21 03:39:51;;;;;;;41.85;19.60;;;8.40;99.90;;;;;;5067779;28;20427;-54
2020/12/21 03:42:17;;;;;;;40.42;19.90;;;8.40;99.90;;;;;;5069897;28;20384;-53
2020/12/21 03:44:43;;;;;;;38.88;20.83;;;8.40;99.90;;;;;;5069268;28;20981;-57
2020/12/21 03:47:09;;;;;;;36.50;19.70;;;8.40;99.90;;;;;;5069527;28;20036;-56
2020/12/21 03:49:35;;;;;;;41.55;20.38;;;8.30;99.90;;;;;;5068568;28;20160;-56
2020/12/21 03:52:00;;;;;;;44.38;21.30;;;8.30;99.90;;;;;;5069621;28;20638;-54
2020/12/21 03:54:26;;;;;;;43.75;21.25;;;8.30;99.90;;;;;;5069157;28;20025;-57
2020/12/21 03:56:52;;;;;;;39.33;21.00;;;8.30;99.90;;;;;;5069018;28;20483;-55
2020/12/21 03:59:18;;;;;;;43.05;21.52;;;8.20;99.90;;;;;;5069513;28;20028;-56
2020/12/21 04:01:43;;;;;;;40.47;21.42;;;8.20;99.90;;;;;;5067439;28;20048;-56
2020/12/21 04:04:09;;;;;;;41.92;22.23;;;8.20;99.90;;;;;;5069607;28;20384;-57
2020/12/21 04:06:35;;;;;;;45.17;23.42;;;8.30;99.90;;;;;;5067529;28;20035;-57
2020/12/21 04:09:02;;;;;;;45.55;22.65;;;8.30;99.90;;;;;;5069139;28;20032;-56
2020/12/21 04:11:28;;;;;;;49.00;22.33;;;8.30;99.90;;;;;;5068131;28;20506;-56
2020/12/21 04:13:54;;;;;;;45.17;23.48;;;8.30;99.90;;;;;;5069154;28;20040;-55
2020/12/21 04:16:19;;;;;;;52.55;23.55;;;8.30;99.90;;;;;;5067922;28;20024;-56
2020/12/21 04:18:45;;;;;;;48.30;23.90;;;8.30;99.90;;;;;;5069142;28;20501;-56
2020/12/21 04:21:12;;;;;;;44.90;23.30;;;8.30;99.90;;;;;;5066547;28;20114;-54
2020/12/21 04:23:38;;;;;;;45.92;24.35;;;8.30;99.90;;;;;;5068930;28;20045;-54
2020/12/21 04:26:05;;;;;;;47.92;22.23;;;8.30;99.90;;;;;;5065599;28;20044;-56
2020/12/21 04:28:31;;;;;;;49.72;23.90;;;8.30;99.90;;;;;;5068385;28;20036;-50
2020/12/21 04:31:00;;;;;;;48.47;22.38;;;8.40;99.90;;;;;;5068153;28;20546;-55
2020/12/21 04:33:26;;;;;;;46.92;22.77;;;8.40;99.90;;;;;;5068847;28;20094;-55
2020/12/21 04:35:52;;;;;;;44.47;21.80;;;8.40;99.90;;;;;;5067544;28;20103;-56
2020/12/21 04:38:18;;;;;;;41.33;21.35;;;8.50;99.90;;;;;;5068916;28;20040;-56
2020/12/21 04:40:50;;;;;;;45.40;21.20;;;8.50;99.90;;;;;;5064582;28;20016;-54
2020/12/21 04:43:16;;;;;;;41.58;20.95;;;8.40;99.90;;;;;;5069018;28;20123;-55
2020/12/21 04:45:43;;;;;;;41.33;21.17;;;8.40;99.90;;;;;;5067518;28;20047;-54
2020/12/21 04:48:14;;;;;;;40.05;20.05;;;8.40;99.90;;;;;;5069023;28;20048;-54
2020/12/21 04:50:40;;;;;;;40.60;21.42;;;8.40;99.90;;;;;;5067587;28;20017;-55
2020/12/21 04:53:08;;;;;;;38.05;19.77;;;8.40;99.90;;;;;;5068748;28;20036;-56
2020/12/21 04:55:33;;;;;;;38.55;18.38;;;8.40;99.90;;;;;;5067169;28;20032;-53
2020/12/21 04:58:04;;;;;;;39.30;18.65;;;8.40;99.90;;;;;;5067869;28;20105;-55
2020/12/21 05:00:33;;;;;;;31.55;18.00;;;8.40;99.90;;;;;;5066988;28;20392;-54
2020/12/21 05:03:00;;;;;;;33.92;17.77;;;8.40;99.90;;;;;;5068508;28;20028;-51
2020/12/21 05:05:40;;;;;;;32.28;16.70;;;8.40;99.90;;;;;;5066649;28;20033;-52
2020/12/21 05:08:14;;;;;;;33.13;17.70;;;8.30;99.90;;;;;;5068710;28;20036;-56
2020/12/21 05:10:43;;;;;;;32.38;17.90;;;8.40;99.90;;;;;;5049382;28;20500;-53
2020/12/21 05:13:09;;;;;;;33.53;17.70;;;8.40;99.90;;;;;;5067566;28;20085;-51
2020/12/21 05:15:36;;;;;;;37.70;17.50;;;8.30;99.90;;;;;;5063561;28;20454;-54
2020/12/21 05:18:06;;;;;;;41.78;18.30;;;8.40;99.90;;;;;;5068380;28;20033;-51
2020/12/21 05:20:36;;;;;;;40.33;18.02;;;8.40;99.90;;;;;;5067814;28;20044;-49
2020/12/21 05:23:04;;;;;;;37.70;17.77;;;8.30;99.90;;;;;;5063881;28;20047;-55
2020/12/21 05:25:30;;;;;;;34.93;17.23;;;8.30;99.90;;;;;;5068637;28;20114;-51
2020/12/21 05:28:12;;;;;;;36.85;17.27;;;8.30;99.90;;;;;;5065327;28;20036;-55
2020/12/21 05:30:53;;;;;;;33.40;16.77;;;8.30;99.90;;;;;;5068532;28;20028;-53
2020/12/21 05:33:19;;;;;;;30.48;17.00;;;8.30;99.90;;;;;;5054122;28;20043;-52
2020/12/21 05:35:48;;;;;;;34.42;16.95;;;8.40;99.90;;;;;;5068646;28;20097;-53
2020/12/21 05:38:29;;;;;;;33.30;16.67;;;8.40;99.90;;;;;;5067864;28;20044;-54
2020/12/21 05:41:07;;;;;;;37.85;17.27;;;8.40;99.90;;;;;;5068078;28;20056;-55
2020/12/21 05:43:36;;;;;;;38.17;17.70;;;8.40;99.90;;;;;;5048533;28;20358;-52
2020/12/21 05:46:23;;;;;;;40.35;16.83;;;8.40;99.90;;;;;;5048052;28;20076;-51
2020/12/21 05:48:54;;;;;;;35.38;15.65;;;8.40;99.90;;;;;;5066426;28;20123;-56
2020/12/21 05:51:22;;;;;;;32.88;16.27;;;8.50;99.90;;;;;;5067291;28;20115;-55
2020/12/21 05:53:51;;;;;;;31.52;15.57;;;8.40;99.90;;;;;;5065756;28;20036;-54
2020/12/21 05:56:18;;;;;;;29.77;15.57;;;8.40;99.90;;;;;;5067247;28;20508;-51
2020/12/21 05:58:45;;;;;;;29.00;14.70;;;8.40;99.90;;;;;;5067151;28;20029;-50
2020/12/21 06:01:12;;;;;;;26.10;14.82;;;8.50;99.90;;;;;;5063968;28;20380;-53
2020/12/21 06:03:42;;;;;;;33.78;16.60;;;8.50;99.90;;;;;;5063641;28;20082;-50
2020/12/21 06:06:11;;;;;;;30.08;15.98;;;8.40;99.90;;;;;;5066903;28;20044;-52
2020/12/21 06:08:37;;;;;;;32.20;16.27;;;8.40;99.90;;;;;;5068051;28;20434;-50
2020/12/21 06:11:15;;;;;;;33.90;17.58;;;8.40;99.90;;;;;;5063540;28;20032;-54
2020/12/21 06:13:49;;;;;;;30.30;16.15;;;8.40;99.90;;;;;;5069448;28;20028;-53
2020/12/21 06:16:17;;;;;;;35.08;16.73;;;8.50;99.90;;;;;;5071306;28;20036;-56
2020/12/21 06:18:42;;;;;;;37.15;17.90;;;8.40;99.90;;;;;;5066934;28;20021;-50
2020/12/21 06:21:08;;;;;;;31.67;15.77;;;8.50;99.90;;;;;;5070774;28;20048;-57
2020/12/21 06:23:39;;;;;;;31.95;15.07;;;8.40;99.90;;;;;;5069929;28;20492;-53
2020/12/21 06:26:12;;;;;;;32.03;16.15;;;8.40;99.90;;;;;;5069037;28;20194;-53
2020/12/21 06:28:39;;;;;;;25.70;13.52;;;8.40;99.90;;;;;;5066856;28;20040;-54
2020/12/21 06:31:16;;;;;;;26.85;15.00;;;8.40;99.90;;;;;;5070355;28;20125;-51
2020/12/21 06:33:43;;;;;;;28.42;15.13;;;8.40;99.90;;;;;;5071017;28;20032;-53
2020/12/21 06:36:09;;;;;;;31.02;15.60;;;8.40;99.90;;;;;;5070424;28;20527;-55
2020/12/21 06:38:49;;;;;;;29.83;15.70;;;8.30;99.90;;;;;;5065929;28;20403;-55
2020/12/21 06:41:23;;;;;;;33.55;15.23;;;8.40;99.90;;;;;;5059824;28;20033;-55
2020/12/21 06:44:06;;;;;;;25.90;14.18;;;8.40;99.90;;;;;;5050863;28;20395;-49
2020/12/21 06:46:34;;;;;;;31.10;16.58;;;8.40;99.90;;;;;;5050782;28;20032;-53
2020/12/21 06:49:11;;;;;;;30.45;17.65;;;8.40;99.90;;;;;;5055634;28;20103;-51
2020/12/21 06:51:45;;;;;;;35.60;17.98;;;8.40;99.90;;;;;;5066789;28;20388;-51
2020/12/21 06:54:12;;;;;;;34.30;17.42;;;8.40;99.90;;;;;;5050833;28;20029;-55
2020/12/21 06:56:44;;;;;;;35.63;19.63;;;8.40;99.90;;;;;;5069411;28;20032;-55
2020/12/21 06:59:15;;;;;;;37.50;17.92;;;8.40;99.90;;;;;;5064724;28;20140;-56
2020/12/21 07:01:43;;;;;;;33.67;17.30;;;8.40;99.90;;;;;;5069537;28;20048;-55
2020/12/21 07:04:14;;;;;;;37.10;18.20;;;8.40;99.90;;;;;;5064212;28;20036;-50
2020/12/21 07:06:41;;;;;;;34.05;17.45;;;8.40;99.90;;;;;;5062800;28;20398;-54
2020/12/21 07:09:07;;;;;;;28.00;14.75;;;8.40;99.90;;;;;;5067454;28;21517;-53
2020/12/21 07:11:33;;;;;;;31.55;16.25;;;8.40;99.90;;;;;;5068801;28;20033;-51
2020/12/21 07:13:59;;;;;;;31.40;16.27;;;8.40;99.90;;;;;;5058778;28;20067;-55
2020/12/21 07:16:26;;;;;;;32.47;17.00;;;8.40;99.90;;;;;;5057489;28;20043;-49
2020/12/21 07:18:52;;;;;;;35.33;16.65;;;8.50;99.90;;;;;;5069119;28;20667;-56
2020/12/21 07:21:18;;;;;;;32.33;16.35;;;8.50;99.90;;;;;;5061974;28;20028;-55
2020/12/21 07:23:45;;;;;;;32.25;16.25;;;8.50;99.90;;;;;;5064264;28;20032;-51
2020/12/21 07:26:14;;;;;;;33.65;15.70;;;8.50;99.90;;;;;;5063697;28;20044;-52
2020/12/21 07:28:45;;;;;;;31.63;16.35;;;8.50;99.90;;;;;;5065761;28;20031;-52
2020/12/21 07:31:12;;;;;;;34.00;16.73;;;8.50;99.90;;;;;;5063786;28;20032;-56
2020/12/21 07:33:55;;;;;;;34.63;15.80;;;8.50;99.90;;;;;;5062372;28;20090;-53
2020/12/21 07:36:29;;;;;;;36.45;16.08;;;8.50;99.90;;;;;;5058857;28;20079;-51
2020/12/21 07:39:12;;;;;;;38.75;18.23;;;8.50;99.90;;;;;;5059343;28;20037;-52
2020/12/21 07:41:51;;;;;;;40.85;19.40;;;8.50;99.90;;;;;;5063331;28;20049;-51
2020/12/21 07:44:30;;;;;;;37.13;16.92;;;8.50;99.90;;;;;;5059409;28;20039;-58
2020/12/21 07:47:06;;;;;;;31.80;15.48;;;8.50;99.90;;;;;;5060820;28;20045;-57
2020/12/21 07:49:34;;;;;;;31.45;16.00;;;8.50;99.90;;;;;;5066656;28;20170;-54
2020/12/21 07:52:02;;;;;;;36.03;14.82;;;8.60;99.90;;;;;;5054125;28;20064;-53
2020/12/21 07:54:32;;;;;;;29.73;14.52;;;8.60;99.90;;;;;;5062150;28;20044;-54
2020/12/21 07:57:02;;;;;;;36.35;15.13;;;8.60;99.90;;;;;;5066060;28;20036;-53
2020/12/21 07:59:28;;;;;;;35.90;15.63;;;8.60;99.90;;;;;;5057882;28;20066;-52
2020/12/21 08:02:02;;;;;;;33.95;14.85;;;8.50;99.90;;;;;;5062985;28;20052;-54
2020/12/21 08:04:28;;;;;;;34.75;14.63;;;8.50;99.90;;;;;;5048974;28;20071;-54
2020/12/21 08:07:11;;;;;;;46.88;15.88;;;8.50;99.90;;;;;;5058889;28;20114;-55
2020/12/21 08:09:37;;;;;;;43.53;15.88;;;8.50;99.90;;;;;;5063401;28;20036;-55
2020/12/21 08:12:13;;;;;;;40.75;15.98;;;8.40;99.90;;;;;;5056357;28;20066;-55
2020/12/21 08:14:39;;;;;;;43.17;16.70;;;8.50;99.90;;;;;;5059335;28;20029;-52
2020/12/21 08:17:16;;;;;;;44.60;17.83;;;8.40;99.90;;;;;;5067265;28;20060;-51
2020/12/21 08:20:01;;;;;;;52.95;21.67;;;8.50;99.90;;;;;;5062541;28;20032;-52
2020/12/21 08:22:30;;;;;;;49.13;20.60;;;8.50;99.90;;;;;;5060568;28;20068;-55
2020/12/21 08:25:10;;;;;;;57.25;21.13;;;8.60;99.90;;;;;;5055430;28;20029;-51
2020/12/21 08:27:43;;;;;;;46.97;21.17;;;8.60;99.90;;;;;;5061008;28;20404;-56
2020/12/21 08:30:14;;;;;;;44.00;21.25;;;8.60;99.90;;;;;;5064212;28;20495;-55
2020/12/21 08:32:40;;;;;;;40.13;19.48;;;8.60;99.90;;;;;;5065967;28;20059;-51
2020/12/21 08:35:06;;;;;;;43.60;19.35;;;8.70;99.90;;;;;;5061874;28;20032;-51
2020/12/21 08:37:33;;;;;;;43.42;19.42;;;8.70;99.90;;;;;;5058231;28;20445;-51
2020/12/21 08:40:10;;;;;;;44.88;18.05;;;8.80;99.90;;;;;;5054829;28;20037;-54
2020/12/21 08:42:36;;;;;;;40.83;19.65;;;8.70;99.90;;;;;;5054310;28;20103;-56
2020/12/21 08:45:03;;;;;;;44.90;17.90;;;8.70;99.90;;;;;;5048616;28;20476;-54
2020/12/21 08:47:28;;;;;;;51.35;20.45;;;8.60;99.90;;;;;;5065582;28;20050;-50
2020/12/21 08:49:54;;;;;;;51.50;20.88;;;8.70;99.90;;;;;;5068125;28;20454;-54
2020/12/21 08:52:20;;;;;;;45.85;20.90;;;8.70;99.90;;;;;;5059444;28;20384;-54
2020/12/21 08:54:45;;;;;;;45.05;18.90;;;8.70;99.90;;;;;;5056173;28;20028;-52
2020/12/21 08:57:11;;;;;;;49.00;20.27;;;8.70;99.90;;;;;;5051543;28;20028;-57
2020/12/21 08:59:37;;;;;;;42.33;20.13;;;8.70;99.90;;;;;;5057427;28;20498;-50
2020/12/21 09:02:03;;;;;;;45.65;20.77;;;8.70;99.90;;;;;;5046935;28;20572;-52
2020/12/21 09:04:29;;;;;;;44.63;21.08;;;8.70;99.90;;;;;;5048518;28;20127;-53
2020/12/21 09:06:55;;;;;;;42.00;20.15;;;8.70;99.90;;;;;;5054357;28;20132;-52
2020/12/21 09:09:22;;;;;;;45.85;20.45;;;8.80;99.90;;;;;;5066813;28;20067;-56
2020/12/21 09:11:55;;;;;;;49.13;19.77;;;8.80;99.90;;;;;;5054669;28;20095;-52
2020/12/21 09:14:28;;;;;;;38.92;20.20;;;8.80;99.90;;;;;;5062548;28;20090;-51
2020/12/21 09:16:53;;;;;;;50.47;21.80;;;8.80;99.90;;;;;;5061090;28;20040;-56
2020/12/21 09:19:19;;;;;;;51.45;19.92;;;8.80;99.90;;;;;;5059854;28;20044;-53
2020/12/21 09:21:45;;;;;;;51.95;19.85;;;8.70;99.90;;;;;;5052775;28;20037;-56
2020/12/21 09:24:11;;;;;;;50.22;18.67;;;8.70;99.90;;;;;;5066805;28;20047;-55
2020/12/21 09:26:38;;;;;;;45.85;19.17;;;8.70;99.90;;;;;;5064741;28;20215;-52
2020/12/21 09:29:05;;;;;;;38.70;19.48;;;8.60;99.90;;;;;;5067403;28;20102;-56
2020/12/21 09:31:31;;;;;;;39.33;17.35;;;8.60;99.90;;;;;;5061334;28;20362;-55
2020/12/21 09:33:56;;;;;;;47.95;18.42;;;8.60;99.90;;;;;;5053461;28;20047;-56
2020/12/21 09:36:23;;;;;;;38.10;17.50;;;8.60;99.90;;;;;;5038250;28;20064;-53
2020/12/21 09:38:49;;;;;;;40.47;17.75;;;8.60;99.90;;;;;;5036477;28;20036;-52
2020/12/21 09:41:17;;;;;;;30.50;15.00;;;8.60;99.90;;;;;;5030990;28;20090;-58
2020/12/21 09:43:47;;;;;;;33.22;16.08;;;8.60;99.90;;;;;;5063392;28;20068;-55
2020/12/21 09:46:21;;;;;;;41.67;17.42;;;8.70;99.90;;;;;;5061176;28;20036;-56
2020/12/21 09:48:47;;;;;;;37.70;16.15;;;8.70;99.90;;;;;;5050314;28;20109;-55
2020/12/21 09:51:13;;;;;;;32.83;15.80;;;8.70;99.90;;;;;;5065720;28;20033;-53
2020/12/21 09:53:39;;;;;;;32.65;17.70;;;8.60;99.90;;;;;;5065863;28;20028;-51
2020/12/21 09:56:08;;;;;;;38.28;16.67;;;8.70;99.90;;;;;;5064257;28;20515;-56
2020/12/21 09:58:33;;;;;;;35.58;16.67;;;8.60;99.90;;;;;;5069330;28;20043;-51
2020/12/21 10:00:59;;;;;;;43.90;16.35;;;8.60;99.90;;;;;;5059852;28;20044;-53
2020/12/21 10:03:25;;;;;;;41.58;17.58;;;8.60;99.90;;;;;;5067393;28;20440;-53
2020/12/21 10:05:50;;;;;;;41.72;15.73;;;8.60;99.90;;;;;;5066739;28;20025;-54
2020/12/21 10:08:16;;;;;;;40.88;17.17;;;8.60;99.90;;;;;;5055518;28;20166;-53
2020/12/21 10:10:46;;;;;;;49.22;18.27;;;8.60;99.90;;;;;;5069876;28;20147;-55
2020/12/21 10:13:12;;;;;;;49.75;16.75;;;8.70;99.90;;;;;;5071487;28;20404;-54
2020/12/21 10:15:38;;;;;;;42.65;16.70;;;8.70;99.90;;;;;;5063163;28;20029;-54
2020/12/21 10:18:04;;;;;;;52.95;17.33;;;8.70;99.90;;;;;;5046498;28;20033;-54
2020/12/21 10:20:29;;;;;;;54.85;16.73;;;8.70;99.90;;;;;;5065114;28;20043;-54
2020/12/21 10:22:55;;;;;;;47.75;15.27;;;8.70;99.90;;;;;;5062027;28;20116;-54
2020/12/21 10:25:21;;;;;;;41.92;16.20;;;8.70;99.90;;;;;;5055967;28;20561;-55
2020/12/21 10:27:47;;;;;;;51.85;18.20;;;8.70;99.90;;;;;;5062154;28;20048;-52
2020/12/21 10:30:15;;;;;;;40.55;16.95;;;8.70;99.90;;;;;;5052241;28;20024;-55
2020/12/21 10:32:43;;;;;;;40.70;15.98;;;8.70;99.90;;;;;;5050891;28;20032;-55
2020/12/21 10:35:09;;;;;;;36.17;15.60;;;8.70;99.90;;;;;;5057824;28;20102;-55
2020/12/21 10:37:34;;;;;;;39.25;15.82;;;8.70;99.90;;;;;;5063221;28;20495;-55
2020/12/21 10:40:00;;;;;;;34.30;15.00;;;8.80;99.90;;;;;;5068548;28;20082;-50
2020/12/21 10:42:26;;;;;;;48.30;16.33;;;8.80;99.90;;;;;;5065735;28;20068;-54
2020/12/21 10:44:52;;;;;;;40.17;15.98;;;8.80;99.90;;;;;;5064102;28;20078;-51
2020/12/21 10:47:17;;;;;;;37.70;17.27;;;8.80;99.90;;;;;;5060011;28;20584;-56
2020/12/21 10:49:43;;;;;;;32.58;15.23;;;8.80;99.90;;;;;;5054289;28;20032;-51
2020/12/21 10:52:09;;;;;;;31.08;15.30;;;8.90;99.90;;;;;;5057700;28;20044;-51
2020/12/21 10:54:35;;;;;;;34.92;15.52;;;8.90;99.90;;;;;;5064236;28;20124;-55
2020/12/21 10:57:05;;;;;;;39.83;17.67;;;8.80;99.90;;;;;;5052940;28;20086;-52
2020/12/21 10:59:31;;;;;;;36.42;16.40;;;8.80;99.90;;;;;;5065397;28;20119;-55
2020/12/21 11:01:57;;;;;;;38.75;16.85;;;8.80;99.90;;;;;;5058053;28;20583;-55
2020/12/21 11:04:22;;;;;;;40.75;17.08;;;8.80;99.90;;;;;;5062032;28;20043;-54
2020/12/21 11:06:48;;;;;;;47.40;18.67;;;8.80;99.90;;;;;;5060354;28;20049;-56
2020/12/21 11:09:14;;;;;;;35.15;15.15;;;8.80;99.90;;;;;;5061598;28;20562;-56
2020/12/21 11:11:39;;;;;;;40.50;17.02;;;8.80;99.90;;;;;;5051015;28;20043;-52
2020/12/21 11:14:05;;;;;;;36.22;17.58;;;8.80;99.90;;;;;;5068074;28;20048;-55
2020/12/21 11:16:31;;;;;;;31.77;16.77;;;8.80;99.90;;;;;;5065172;28;20051;-54
2020/12/21 11:18:57;;;;;;;42.13;17.42;;;8.80;99.90;;;;;;5065968;28;20064;-57
2020/12/21 11:21:23;;;;;;;42.45;17.85;;;8.80;99.90;;;;;;5060323;28;20060;-54
2020/12/21 11:23:49;;;;;;;39.00;16.75;;;8.80;99.90;;;;;;5064574;28;20047;-54
2020/12/21 11:26:15;;;;;;;38.05;16.88;;;8.80;99.90;;;;;;5068545;28;20044;-57
2020/12/21 11:28:41;;;;;;;42.90;17.83;;;8.80;99.90;;;;;;5050465;28;20063;-57
2020/12/21 11:31:07;;;;;;;34.08;16.33;;;8.90;99.90;;;;;;5062074;28;20039;-54
2020/12/21 11:33:33;;;;;;;31.55;16.55;;;8.90;99.90;;;;;;5060250;28;20063;-52
2020/12/21 11:35:59;;;;;;;34.72;16.42;;;8.90;99.90;;;;;;5067803;28;20040;-53
2020/12/21 11:38:25;;;;;;;37.70;17.92;;;8.90;99.90;;;;;;5064247;28;20036;-56
2020/12/21 11:40:51;;;;;;;38.58;17.88;;;8.90;99.90;;;;;;5069785;28;20476;-53
2020/12/21 11:43:17;;;;;;;35.40;16.13;;;9.00;99.90;;;;;;5066113;28;20055;-56
2020/12/21 11:45:48;;;;;;;38.70;18.02;;;9.00;99.90;;;;;;5069735;28;20115;-54
2020/12/21 11:48:13;;;;;;;34.13;16.75;;;9.00;99.90;;;;;;5050942;28;20047;-54
2020/12/21 11:50:39;;;;;;;43.80;18.00;;;9.00;99.90;;;;;;5059723;28;20115;-54
2020/12/21 11:53:05;;;;;;;40.42;16.83;;;9.00;99.90;;;;;;5058528;28;20043;-52
2020/12/21 11:55:31;;;;;;;33.88;15.88;;;9.00;99.90;;;;;;5069581;28;20028;-51
2020/12/21 11:57:56;;;;;;;37.25;17.40;;;9.00;99.90;;;;;;5056351;28;20050;-57
2020/12/21 12:00:22;;;;;;;44.97;17.02;;;9.00;99.90;;;;;;5060105;28;20075;-56
2020/12/21 12:02:48;;;;;;;37.70;15.18;;;9.00;99.90;;;;;;5063896;28;20064;-51
2020/12/21 12:05:14;;;;;;;34.20;14.82;;;8.90;99.90;;;;;;5058329;28;20028;-51
2020/12/21 12:07:40;;;;;;;32.47;14.70;;;8.90;99.90;;;;;;5049942;28;20032;-53
2020/12/21 12:10:07;;;;;;;29.38;13.60;;;9.00;99.90;;;;;;5065457;28;20057;-54
2020/12/21 12:12:33;;;;;;;31.50;13.50;;;9.00;99.90;;;;;;5064696;28;20028;-53
2020/12/21 12:14:59;;;;;;;24.35;12.50;;;9.10;99.90;;;;;;5069194;28;20055;-55
2020/12/21 12:17:25;;;;;;;28.92;12.63;;;9.20;99.90;;;;;;5061806;28;20480;-53
2020/12/21 12:19:51;;;;;;;24.10;11.65;;;9.20;99.90;;;;;;5059524;28;20032;-52
2020/12/21 12:22:17;;;;;;;28.15;14.13;;;9.20;99.90;;;;;;5064245;28;20044;-51
2020/12/21 12:24:43;;;;;;;27.83;12.45;;;9.20;99.90;;;;;;5062314;28;20483;-53
2020/12/21 12:27:09;;;;;;;39.05;15.15;;;9.10;99.90;;;;;;5060710;28;20422;-51
2020/12/21 12:29:35;;;;;;;36.05;14.57;;;9.10;99.90;;;;;;5061225;28;20451;-54
2020/12/21 12:32:00;;;;;;;30.17;13.52;;;9.10;99.90;;;;;;5055065;28;20040;-53
2020/12/21 12:34:26;;;;;;;36.00;14.88;;;9.20;99.90;;;;;;5048751;28;20163;-50
2020/12/21 12:36:52;;;;;;;28.98;15.57;;;9.10;99.90;;;;;;5057057;28;20044;-51
2020/12/21 12:39:18;;;;;;;38.33;14.93;;;9.20;99.90;;;;;;5053731;28;20131;-53